Weather at La Guaira Airport

Public forecast

Using degrees Celsius for public forecast. Weather courtesy of forecast.io.

Closest aviation weather report (METAR) to La Guaira Airport

Closest report is Simón Bolívar International Airport, 4.8 nm (8.8 km) NNE. Retrieved 2022/05/28 07:00 UTC (26 minutes ago):

SVMI 280700Z 00000KT 9000 -DZ BKN016 22/21 Q1014

Closest aviation forecast (TAF) to La Guaira Airport

Closest forecast is Simón Bolívar International Airport, 4.8 nm (8.8 km) NNE. Retrieved 2022/05/28 06:18 UTC (1 hour ago):

TAF SVMI 280400Z 2806/2906 05005KT 9999 SCT016 TX32/2818Z TN21/2807Z TEMPO 2806/2810 07002KT 9999 SCT016 BKN060